Time;durP1;ratioP1;P1;durP2;ratioP2;P2;SDS_P1;SDS_P2;PMS_P1;PMS_P2;Temp;Humidity;BMP_temperature;BMP_pressure;BME280_temperature;BME280_humidity;BME280_pressure;Samples;Min_cycle;Max_cycle;Signal;HPM_P1;HPM_P2
2021/12/17 00:06:59;;;;;;;29.65;9.25;;;;;;;3.36;100.00;103249.41;5003728;28;20041;-81
2021/12/17 00:09:24;;;;;;;29.67;10.82;;;;;;;3.25;100.00;103272.00;5007532;28;20041;-80
2021/12/17 00:11:50;;;;;;;27.88;11.60;;;;;;;2.98;100.00;103266.09;5012311;28;20040;-81
2021/12/17 00:14:25;;;;;;;28.17;10.27;;;;;;;2.90;100.00;103280.63;5006188;28;20041;-81
2021/12/17 00:16:51;;;;;;;26.33;10.07;;;;;;;2.86;100.00;103275.44;4990669;28;20095;-82
2021/12/17 00:19:27;;;;;;;19.70;9.25;;;;;;;2.73;100.00;103262.75;5021565;28;20041;-81
2021/12/17 00:49:18;;;;;;;26.75;10.75;;;;;;;2.46;100.00;103284.19;5018893;28;20631;-80
2021/12/17 00:51:58;;;;;;;31.27;11.38;;;;;;;2.25;100.00;103264.66;5026001;28;20047;-81
2021/12/17 00:54:34;;;;;;;27.55;9.48;;;;;;;2.07;100.00;103265.38;5007119;28;20047;-80
2021/12/17 00:57:07;;;;;;;30.85;10.77;;;;;;;2.00;100.00;103277.13;5026966;28;20066;-80
2021/12/17 00:59:33;;;;;;;32.72;10.93;;;;;;;2.00;100.00;103278.00;5011174;28;20410;-81
2021/12/17 01:02:01;;;;;;;27.42;9.52;;;;;;;2.00;100.00;103275.34;5026137;28;20120;-81
2021/12/17 01:04:27;;;;;;;28.08;10.57;;;;;;;2.01;100.00;103282.38;5009707;28;21927;-81
2021/12/17 01:06:53;;;;;;;21.80;9.60;;;;;;;1.80;100.00;103278.75;5006114;28;20042;-81
2021/12/17 01:09:21;;;;;;;29.10;10.38;;;;;;;1.58;100.00;103273.34;5008535;28;20415;-81
2021/12/17 01:11:47;;;;;;;24.70;11.20;;;;;;;1.48;100.00;103287.88;5020542;28;20072;-81
2021/12/17 01:14:13;;;;;;;25.30;10.23;;;;;;;1.47;100.00;103287.00;5005671;28;20034;-80
2021/12/17 01:16:39;;;;;;;24.08;8.95;;;;;;;1.41;100.00;103292.53;5019575;28;20044;-80
2021/12/17 01:35:39;;;;;;;34.40;13.10;;;;;;;1.22;100.00;103276.41;5006233;28;20045;-80
2021/12/17 01:43:13;;;;;;;28.30;10.75;;;;;;;1.01;100.00;103269.19;5014204;28;20029;-81
2021/12/17 01:45:41;;;;;;;27.00;11.15;;;;;;;1.07;100.00;103284.88;5023511;28;20029;-81
2021/12/17 01:48:14;;;;;;;23.55;9.00;;;;;;;1.11;100.00;103286.50;5009157;28;20044;-81
2021/12/17 01:56:30;;;;;;;35.33;11.93;;;;;;;1.24;100.00;103271.91;5022093;28;20036;-80
2021/12/17 02:01:40;;;;;;;33.80;12.25;;;;;;;1.38;100.00;103275.88;5011107;28;20395;-80
2021/12/17 02:04:06;;;;;;;31.10;10.10;;;;;;;1.45;100.00;103285.31;5010601;28;20033;-81
2021/12/17 02:06:35;;;;;;;29.90;11.60;;;;;;;1.43;100.00;103285.41;5021054;28;20108;-80
2021/12/17 02:09:02;;;;;;;34.67;12.93;;;;;;;1.48;100.00;103278.16;5019480;28;20128;-80
2021/12/17 02:19:47;;;;;;;34.10;11.23;;;;;;;1.51;100.00;103277.19;5046513;28;20033;-81
2021/12/17 02:33:03;;;;;;;29.50;11.77;;;;;;;1.09;100.00;103269.81;5021221;28;20073;-80
2021/12/17 02:35:37;;;;;;;20.67;8.15;;;;;;;1.08;100.00;103268.91;5023358;28;20075;-80
2021/12/17 02:38:03;;;;;;;27.42;10.65;;;;;;;1.17;100.00;103266.91;4993157;28;20033;-80
2021/12/17 02:45:46;;;;;;;26.88;10.27;;;;;;;1.07;100.00;103268.97;5003788;28;20042;-81
2021/12/17 02:48:17;;;;;;;22.33;7.95;;;;;;;1.03;100.00;103270.88;5019724;28;20479;-81
2021/12/17 02:50:48;;;;;;;29.73;10.77;;;;;;;1.12;100.00;103274.13;4991489;28;20359;-81
2021/12/17 02:53:15;;;;;;;27.67;9.27;;;;;;;1.07;100.00;103282.22;5013363;28;20056;-80
2021/12/17 02:55:44;;;;;;;31.83;10.52;;;;;;;0.93;100.00;103274.75;5035052;28;20094;-81
2021/12/17 02:58:10;;;;;;;37.45;9.38;;;;;;;0.82;100.00;103279.53;5007430;28;20467;-81
2021/12/17 03:00:38;;;;;;;54.88;10.88;;;;;;;0.76;100.00;103275.31;5017983;28;20052;-81
2021/12/17 03:03:05;;;;;;;49.78;10.73;;;;;;;0.75;100.00;103270.94;5018808;28;20026;-80
2021/12/17 03:05:31;;;;;;;32.38;9.48;;;;;;;0.65;100.00;103269.50;5021891;28;20075;-81
2021/12/17 03:07:57;;;;;;;24.27;8.63;;;;;;;0.62;100.00;103274.91;5008366;28;20065;-81
2021/12/17 03:10:24;;;;;;;30.00;11.80;;;;;;;0.65;100.00;103272.16;5015866;28;20033;-81
2021/12/17 03:12:55;;;;;;;34.72;11.05;;;;;;;0.71;100.00;103269.28;5003183;28;20033;-81
2021/12/17 03:23:39;;;;;;;33.13;10.80;;;;;;;0.36;100.00;103262.47;5010152;28;20037;-81
2021/12/17 03:26:16;;;;;;;36.20;11.00;;;;;;;0.26;100.00;103261.03;4992952;28;20030;-81
2021/12/17 03:28:45;;;;;;;42.15;11.93;;;;;;;0.18;100.00;103254.19;4987969;28;20116;-81
2021/12/17 03:31:11;;;;;;;43.72;11.55;;;;;;;0.31;100.00;103267.06;5009502;28;20033;-81
2021/12/17 03:33:42;;;;;;;31.88;10.13;;;;;;;0.33;100.00;103265.22;5022603;28;20034;-81
2021/12/17 03:36:11;;;;;;;38.00;11.00;;;;;;;0.29;100.00;103266.22;5023072;28;20037;-81
2021/12/17 03:38:38;;;;;;;27.02;10.48;;;;;;;0.26;100.00;103261.88;5023986;28;20049;-81
2021/12/17 03:43:38;;;;;;;28.02;10.05;;;;;;;0.13;100.00;103260.53;5003501;28;20128;-81
2021/12/17 03:46:04;;;;;;;27.48;8.88;;;;;;;-0.01;100.00;103253.03;5018783;28;20122;-80
2021/12/17 03:48:31;;;;;;;25.83;9.95;;;;;;;0.03;100.00;103253.78;5017513;28;20065;-80
2021/12/17 03:50:57;;;;;;;27.85;10.18;;;;;;;0.01;100.00;103245.06;5016773;28;20117;-81
2021/12/17 03:53:23;;;;;;;18.95;7.93;;;;;;;-0.23;100.00;103207.84;4990297;28;20087;-81
2021/12/17 03:55:49;;;;;;;30.42;9.60;;;;;;;0.05;100.00;103262.56;5024854;28;20045;-81
2021/12/17 03:58:17;;;;;;;32.10;10.70;;;;;;;0.02;100.00;103252.94;5006584;28;20048;-80
2021/12/17 04:00:43;;;;;;;36.75;11.85;;;;;;;0.06;100.00;103254.59;5009903;28;20029;-81
2021/12/17 04:03:08;;;;;;;26.58;10.70;;;;;;;0.02;100.00;103247.63;5025700;28;20025;-81
2021/12/17 04:05:34;;;;;;;30.23;10.55;;;;;;;0.00;100.00;103254.78;5025262;28;20040;-80
2021/12/17 04:08:00;;;;;;;27.65;10.35;;;;;;;0.02;100.00;103234.41;5023656;28;20033;-81
2021/12/17 04:10:28;;;;;;;33.00;11.88;;;;;;;0.19;100.00;103252.44;5006974;28;20041;-80
2021/12/17 04:12:59;;;;;;;23.23;10.00;;;;;;;0.29;100.00;103263.59;5026126;28;20045;-80
2021/12/17 04:15:36;;;;;;;30.17;9.95;;;;;;;0.31;100.00;103259.13;5026836;28;20056;-80
2021/12/17 04:18:09;;;;;;;22.98;9.10;;;;;;;0.30;100.00;103258.25;5010211;28;20034;-81
2021/12/17 04:20:36;;;;;;;28.20;10.30;;;;;;;0.32;100.00;103261.72;5014310;28;20037;-80
2021/12/17 04:23:02;;;;;;;30.95;10.07;;;;;;;0.32;100.00;103250.25;5011609;28;20348;-80
2021/12/17 04:25:30;;;;;;;36.63;12.07;;;;;;;0.12;100.00;103209.41;5029616;28;20040;-81
2021/12/17 04:27:57;;;;;;;31.17;11.40;;;;;;;0.41;100.00;103260.56;5025063;28;20120;-81
2021/12/17 04:30:23;;;;;;;29.25;11.52;;;;;;;0.42;100.00;103264.94;5011636;28;20083;-80
2021/12/17 04:32:49;;;;;;;40.65;12.38;;;;;;;0.44;100.00;103256.03;5015064;28;20033;-81
2021/12/17 04:35:15;;;;;;;25.75;10.32;;;;;;;0.44;100.00;103242.78;5021604;28;20111;-80
2021/12/17 04:37:40;;;;;;;39.70;11.50;;;;;;;0.54;100.00;103261.03;5028346;28;20022;-81
2021/12/17 04:40:06;;;;;;;68.13;12.05;;;;;;;0.42;100.00;103256.97;4990971;28;20034;-79
2021/12/17 04:42:47;;;;;;;27.73;8.65;;;;;;;0.40;100.00;103259.69;5026404;28;20042;-81
2021/12/17 04:45:12;;;;;;;44.55;13.13;;;;;;;0.28;100.00;103252.13;4993606;28;20068;-81
2021/12/17 04:58:35;;;;;;;49.05;9.63;;;;;;;0.14;100.00;103272.88;5045413;28;20041;-80
2021/12/17 05:01:03;;;;;;;52.83;11.45;;;;;;;0.07;100.00;103266.88;5026663;28;20041;-81
2021/12/17 05:03:29;;;;;;;75.40;11.65;;;;;;;0.10;100.00;103277.38;5006710;28;20038;-80
2021/12/17 05:05:54;;;;;;;71.25;11.35;;;;;;;0.15;100.00;103278.09;5023082;28;20029;-80
2021/12/17 05:08:22;;;;;;;48.42;11.27;;;;;;;-0.03;100.00;103258.38;5007626;28;20029;-80
2021/12/17 05:11:26;;;;;;;49.35;11.93;;;;;;;0.04;100.00;103276.69;5027255;28;20075;-81
2021/12/17 05:19:21;;;;;;;28.00;10.18;;;;;;;-0.10;100.00;103283.25;5019394;28;20402;-79
2021/12/17 05:21:47;;;;;;;30.38;10.02;;;;;;;-0.19;100.00;103265.00;5035202;28;20073;-80
2021/12/17 05:24:13;;;;;;;26.35;9.10;;;;;;;0.04;100.00;103279.34;5019175;28;20076;-81
2021/12/17 05:26:38;;;;;;;29.20;11.23;;;;;;;0.10;100.00;103269.44;5022132;28;20447;-81
2021/12/17 05:29:04;;;;;;;28.48;10.10;;;;;;;0.21;100.00;103277.03;5028949;28;20060;-80
2021/12/17 05:31:30;;;;;;;33.60;11.05;;;;;;;0.35;100.00;103284.59;4992102;28;20469;-80
2021/12/17 05:34:08;;;;;;;29.50;9.57;;;;;;;0.38;100.00;103277.41;4996069;28;20030;-81
2021/12/17 05:37:06;;;;;;;34.78;11.43;;;;;;;0.34;100.00;103269.59;5017269;28;20458;-80
2021/12/17 05:40:01;;;;;;;30.17;10.10;;;;;;;-0.01;100.00;103211.56;5007160;28;20177;-80
2021/12/17 05:42:27;;;;;;;13.30;6.60;;;;;;;0.54;100.00;103282.22;4990887;28;20061;-80
2021/12/17 05:44:58;;;;;;;30.63;10.85;;;;;;;0.58;100.00;103283.84;5027003;28;20060;-80
2021/12/17 05:47:24;;;;;;;33.25;11.77;;;;;;;0.49;100.00;103261.19;5024015;28;20041;-81
2021/12/17 05:49:49;;;;;;;28.83;9.98;;;;;;;0.56;100.00;103272.44;5008671;28;20079;-80
2021/12/17 05:52:15;;;;;;;35.13;11.23;;;;;;;0.71;100.00;103281.66;4991897;28;20091;-80
2021/12/17 05:54:41;;;;;;;24.60;10.13;;;;;;;0.72;100.00;103275.47;5029581;28;20087;-80
2021/12/17 05:57:07;;;;;;;35.78;9.90;;;;;;;0.85;100.00;103277.66;5018806;28;20037;-80
2021/12/17 05:59:35;;;;;;;50.40;11.30;;;;;;;0.96;100.00;103276.44;4992229;28;20045;-80
2021/12/17 06:02:04;;;;;;;49.83;9.57;;;;;;;0.95;100.00;103277.34;4993206;28;20037;-81
2021/12/17 06:04:29;;;;;;;53.47;10.68;;;;;;;0.97;100.00;103283.47;5010268;28;20056;-81
2021/12/17 06:06:55;;;;;;;34.65;8.43;;;;;;;0.74;100.00;103263.91;5022088;28;20387;-81
2021/12/17 06:09:21;;;;;;;51.47;10.60;;;;;;;0.65;100.00;103270.34;4996641;28;20025;-80
2021/12/17 06:11:46;;;;;;;24.63;9.93;;;;;;;0.39;100.00;103260.59;5021165;28;20033;-79
2021/12/17 06:14:12;;;;;;;36.70;10.00;;;;;;;0.55;100.00;103283.94;5024345;28;20034;-81
2021/12/17 06:16:38;;;;;;;33.05;9.32;;;;;;;0.51;100.00;103284.97;5010623;28;20040;-80
2021/12/17 06:19:04;;;;;;;52.08;10.35;;;;;;;0.37;100.00;103283.63;5027728;28;20041;-80
2021/12/17 06:21:29;;;;;;;65.05;10.60;;;;;;;0.14;100.00;103267.59;5024700;28;20390;-81
2021/12/17 06:23:55;;;;;;;57.42;10.40;;;;;;;0.23;100.00;103293.75;5006723;28;20498;-80
2021/12/17 06:26:21;;;;;;;30.10;8.43;;;;;;;0.30;100.00;103302.38;5011857;28;20392;-80
2021/12/17 06:28:50;;;;;;;68.90;9.90;;;;;;;0.33;100.00;103300.50;4990970;28;20048;-80
2021/12/17 06:31:18;;;;;;;36.17;10.77;;;;;;;0.43;100.00;103295.78;5012683;28;20417;-80
2021/12/17 06:33:43;;;;;;;35.60;9.98;;;;;;;0.50;100.00;103297.31;5022199;28;20530;-80
2021/12/17 06:36:09;;;;;;;40.83;11.00;;;;;;;0.58;100.00;103299.72;5009249;28;20041;-79
2021/12/17 06:38:35;;;;;;;31.10;10.68;;;;;;;0.58;100.00;103297.97;5019663;28;20037;-80
2021/12/17 06:41:00;;;;;;;35.90;9.90;;;;;;;0.54;100.00;103303.41;5021147;28;20399;-80
2021/12/17 06:43:33;;;;;;;30.92;9.93;;;;;;;0.47;100.00;103304.50;5024165;28;20037;-80
2021/12/17 06:46:17;;;;;;;26.17;8.70;;;;;;;0.58;100.00;103295.31;5007729;28;20095;-80
2021/12/17 06:48:43;;;;;;;33.65;12.15;;;;;;;0.83;100.00;103299.81;4990898;28;20522;-80
2021/12/17 07:34:05;;;;;;;35.30;11.90;;;;;;;1.82;100.00;103281.34;5023596;28;20061;-81
2021/12/17 07:36:43;;;;;;;;;;;;;;;1.84;100.00;103290.97;5023164;28;20029;-81
2021/12/17 07:39:09;;;;;;;21.42;6.93;;;;;;;1.84;100.00;103284.81;5011286;28;19917;-82
2021/12/17 07:41:35;;;;;;;32.13;11.68;;;;;;;1.87;100.00;103284.69;5009602;28;20064;-81
2021/12/17 07:44:02;;;;;;;33.05;12.07;;;;;;;1.80;100.00;103283.19;5023365;28;20034;-82
2021/12/17 07:46:30;;;;;;;28.63;10.05;;;;;;;1.62;100.00;103282.09;5010471;28;20060;-80
2021/12/17 07:48:56;;;;;;;33.13;11.55;;;;;;;1.36;100.00;103283.00;5013810;28;20481;-80
2021/12/17 07:51:23;;;;;;;30.50;10.30;;;;;;;1.33;100.00;103288.44;4996597;28;20041;-81
2021/12/17 07:53:49;;;;;;;31.00;11.48;;;;;;;1.16;100.00;103279.25;5029802;28;20076;-81
2021/12/17 07:56:18;;;;;;;31.02;9.60;;;;;;;1.07;100.00;103284.88;5010318;28;20490;-80
2021/12/17 07:58:45;;;;;;;28.75;9.90;;;;;;;0.95;100.00;103294.09;5026228;28;20037;-81
2021/12/17 08:01:11;;;;;;;33.80;10.95;;;;;;;0.80;100.00;103290.19;5029174;28;20451;-81
2021/12/17 08:03:38;;;;;;;30.33;10.57;;;;;;;0.70;100.00;103291.41;5029447;28;20033;-81
2021/12/17 08:06:08;;;;;;;33.60;10.68;;;;;;;0.62;100.00;103296.06;5027580;28;20136;-81
2021/12/17 08:08:34;;;;;;;24.75;7.82;;;;;;;0.58;100.00;103297.97;5014749;28;20049;-81
2021/12/17 08:11:00;;;;;;;29.10;10.20;;;;;;;0.64;100.00;103304.84;5013250;28;20124;-80
2021/12/17 08:13:30;;;;;;;35.55;12.90;;;;;;;0.58;100.00;103300.63;5026029;28;20124;-81
2021/12/17 08:18:42;;;;;;;41.03;13.20;;;;;;;0.83;100.00;103305.97;5013764;28;20051;-81
2021/12/17 08:26:27;;;;;;;38.40;11.90;;;;;;;0.91;100.00;103316.31;5022293;28;20029;-81
2021/12/17 08:29:23;;;;;;;44.40;11.65;;;;;;;0.90;100.00;103297.81;5027786;28;20025;-80
2021/12/17 08:31:39;;;;;;;40.40;11.38;;;;;;;0.91;100.00;103307.50;5012489;28;20030;-80
2021/12/17 08:34:05;;;;;;;45.65;12.75;;;;;;;0.85;100.00;103293.56;4996361;28;20042;-80
2021/12/17 08:36:31;;;;;;;46.20;13.27;;;;;;;0.89;100.00;103307.56;5010095;28;20059;-81
2021/12/17 08:38:57;;;;;;;20.48;6.32;;;;;;;0.94;100.00;103302.97;5028856;28;20475;-81
2021/12/17 08:41:22;;;;;;;40.67;13.98;;;;;;;1.05;100.00;103305.25;5028443;28;20033;-80
2021/12/17 08:43:49;;;;;;;42.80;12.27;;;;;;;1.09;100.00;103312.19;4996189;28;20125;-80
2021/12/17 08:46:15;;;;;;;41.60;12.02;;;;;;;1.19;100.00;103308.31;5046497;28;20049;-81
2021/12/17 08:48:41;;;;;;;45.97;12.45;;;;;;;1.28;100.00;103310.66;4997836;28;20390;-81
2021/12/17 08:51:08;;;;;;;41.25;11.38;;;;;;;1.27;100.00;103293.03;5025466;28;20056;-81
2021/12/17 08:53:34;;;;;;;35.75;10.77;;;;;;;1.46;100.00;103316.25;5027705;28;20170;-81
2021/12/17 08:56:01;;;;;;;54.65;14.88;;;;;;;1.66;100.00;103313.72;5029104;28;20109;-80
2021/12/17 08:58:27;;;;;;;52.25;13.75;;;;;;;1.75;100.00;103316.06;5013178;28;20288;-81
2021/12/17 09:00:52;;;;;;;42.78;14.07;;;;;;;1.78;100.00;103309.78;4996850;28;20360;-81
2021/12/17 09:03:18;;;;;;;42.00;13.90;;;;;;;1.74;100.00;103305.50;5027996;28;20544;-81
2021/12/17 09:05:46;;;;;;;43.75;13.13;;;;;;;1.77;100.00;103315.97;5012362;28;20069;-80
2021/12/17 09:08:13;;;;;;;48.40;15.75;;;;;;;1.74;100.00;103309.00;5011991;28;20099;-80
2021/12/17 09:10:40;;;;;;;50.78;15.02;;;;;;;1.85;100.00;103319.22;5028571;28;20063;-80
2021/12/17 09:13:07;;;;;;;61.15;18.73;;;;;;;1.88;100.00;103323.53;5011389;28;20037;-81
2021/12/17 09:15:33;;;;;;;51.58;15.95;;;;;;;1.91;100.00;103316.38;5024915;28;20038;-81
2021/12/17 09:17:59;;;;;;;46.70;14.55;;;;;;;2.01;100.00;103319.53;5023254;28;20040;-81
2021/12/17 09:20:24;;;;;;;51.08;15.38;;;;;;;2.09;100.00;103329.84;5018236;28;20071;-81
2021/12/17 09:22:51;;;;;;;49.08;15.52;;;;;;;2.20;100.00;103325.03;5003263;28;20498;-80
2021/12/17 09:25:17;;;;;;;46.47;15.65;;;;;;;2.32;100.00;103326.34;5007996;28;20033;-81
2021/12/17 09:27:43;;;;;;;19.15;8.45;;;;;;;2.59;100.00;103333.25;5020608;28;20037;-80
2021/12/17 09:30:13;;;;;;;50.28;16.73;;;;;;;2.72;100.00;103309.69;5026411;28;20443;-84
2021/12/17 09:32:39;;;;;;;48.45;15.32;;;;;;;2.89;100.00;103324.09;5021913;28;20040;-85
2021/12/17 09:35:09;;;;;;;61.17;16.58;;;;;;;3.02;100.00;103330.63;5011521;28;20037;-84
2021/12/17 09:37:35;;;;;;;48.72;15.23;;;;;;;3.16;100.00;103316.75;5030491;28;20137;-84
2021/12/17 09:40:04;;;;;;;51.03;16.40;;;;;;;3.52;100.00;103327.63;5027797;28;20029;-84
2021/12/17 09:42:30;;;;;;;59.30;18.73;;;;;;;4.00;100.00;103333.50;5026712;28;20022;-83
2021/12/17 09:44:55;;;;;;;72.75;19.92;;;;;;;4.48;100.00;103337.47;4992164;28;20394;-84
2021/12/17 09:47:21;;;;;;;87.22;22.58;;;;;;;5.04;100.00;103339.16;5023442;28;20441;-85
2021/12/17 09:49:52;;;;;;;76.80;20.02;;;;;;;5.52;100.00;103337.59;4996675;28;20041;-84
2021/12/17 09:52:18;;;;;;;72.43;19.95;;;;;;;5.64;100.00;103328.97;5010497;28;20046;-84
2021/12/17 09:54:44;;;;;;;57.85;19.20;;;;;;;5.40;100.00;103328.44;5022491;28;20064;-83
2021/12/17 09:57:09;;;;;;;71.72;19.25;;;;;;;5.37;100.00;103355.28;4990799;28;20784;-84
2021/12/17 09:59:35;;;;;;;55.67;19.58;;;;;;;4.91;100.00;103328.25;5011103;28;20079;-83
2021/12/17 10:02:01;;;;;;;46.47;17.52;;;;;;;4.67;100.00;103343.63;5027283;28;20072;-83
2021/12/17 10:04:28;;;;;;;46.50;16.80;;;;;;;4.63;100.00;103339.38;5030673;28;20356;-84
2021/12/17 10:07:20;;;;;;;46.22;16.48;;;;;;;5.13;100.00;103337.84;5014434;28;20033;-83
2021/12/17 10:09:52;;;;;;;34.35;14.07;;;;;;;5.18;100.00;103326.00;4997970;28;20029;-84
2021/12/17 10:12:23;;;;;;;40.88;14.52;;;;;;;6.16;99.63;103338.69;5012857;28;20043;-84
2021/12/17 10:15:10;;;;;;;51.95;16.77;;;;;;;7.19;95.18;103338.22;5027061;28;20080;-84
2021/12/17 10:17:54;;;;;;;53.25;15.70;;;;;;;7.93;91.81;103340.84;4997484;28;20033;-83
2021/12/17 10:20:24;;;;;;;41.70;14.65;;;;;;;8.41;90.13;103331.66;4997687;28;20053;-84
2021/12/17 10:23:07;;;;;;;37.65;15.60;;;;;;;8.77;87.90;103339.97;5027224;28;20694;-84
2021/12/17 10:25:40;;;;;;;35.22;14.23;;;;;;;8.89;87.22;103343.69;5027261;28;20037;-83
2021/12/17 10:28:07;;;;;;;36.97;12.80;;;;;;;8.70;86.79;103327.06;5012356;28;20130;-84
2021/12/17 10:30:35;;;;;;;33.15;12.27;;;;;;;8.78;86.40;103330.97;5013951;28;20049;-83
2021/12/17 10:33:03;;;;;;;30.75;12.02;;;;;;;8.46;88.15;103348.31;5025553;28;20033;-83
2021/12/17 10:35:34;;;;;;;31.50;12.93;;;;;;;7.91;90.06;103345.44;5014114;28;20040;-84
2021/12/17 10:38:04;;;;;;;35.67;14.02;;;;;;;7.64;91.35;103321.19;5013179;28;20033;-84
2021/12/17 10:40:32;;;;;;;31.95;12.95;;;;;;;7.17;94.56;103365.06;5013889;28;20095;-84
2021/12/17 10:43:18;;;;;;;35.10;13.88;;;;;;;7.32;94.94;103355.25;4997037;28;20042;-84
2021/12/17 10:45:59;;;;;;;35.28;14.25;;;;;;;7.32;95.40;103357.94;5012322;28;20045;-83
2021/12/17 10:51:32;;;;;;;45.75;10.20;;;;;;;7.46;95.08;103349.97;5028984;28;20043;-83
2021/12/17 10:54:28;;;;;;;51.60;16.30;;;;;;;7.61;96.03;103355.34;5013344;28;20171;-83
2021/12/17 10:56:54;;;;;;;43.25;15.13;;;;;;;7.97;93.59;103354.06;5027932;28;20091;-84
2021/12/17 10:59:31;;;;;;;43.30;15.60;;;;;;;7.92;93.45;103348.97;5029463;28;20065;-84
2021/12/17 11:02:10;;;;;;;44.92;16.00;;;;;;;8.25;92.02;103353.19;5012813;28;20505;-84
2021/12/17 11:04:38;;;;;;;32.40;10.50;;;;;;;8.17;93.03;103348.28;5026467;28;20061;-84
2021/12/17 11:07:06;;;;;;;60.78;19.55;;;;;;;8.50;91.26;103355.19;5028414;28;20103;-84
2021/12/17 11:09:50;;;;;;;47.53;17.83;;;;;;;8.42;91.61;103350.31;5012873;28;20048;-84
2021/12/17 11:12:33;;;;;;;48.80;17.92;;;;;;;8.47;91.94;103342.84;5028018;28;20116;-80
2021/12/17 11:15:11;;;;;;;45.55;19.35;;;;;;;8.90;91.89;103349.91;4990428;28;20363;-80
2021/12/17 11:17:37;;;;;;;87.13;25.42;;;;;;;8.96;91.51;103339.63;5028305;28;20036;-79
2021/12/17 11:20:10;;;;;;;78.40;26.98;;;;;;;8.60;93.84;103340.25;4993376;28;20376;-82
2021/12/17 11:22:37;;;;;;;;;;;;;;;8.19;95.92;103357.09;4993483;28;20045;-79
2021/12/17 11:25:03;;;;;;;65.50;21.80;;;;;;;7.75;99.38;103349.16;5025675;28;19917;-80
2021/12/17 11:27:29;;;;;;;57.88;20.52;;;;;;;7.00;100.00;103333.94;4994160;28;20482;-79
2021/12/17 11:29:55;;;;;;;69.50;23.50;;;;;;;6.63;100.00;103332.53;5024741;28;20061;-80
2021/12/17 11:32:21;;;;;;;72.03;21.90;;;;;;;6.56;100.00;103350.72;5027173;28;20130;-79
2021/12/17 11:34:47;;;;;;;75.90;22.85;;;;;;;6.75;100.00;103355.91;5008928;28;20451;-79
2021/12/17 11:37:14;;;;;;;73.10;24.75;;;;;;;7.01;100.00;103345.50;5023383;28;20037;-81
2021/12/17 11:39:54;;;;;;;88.68;25.23;;;;;;;7.17;100.00;103350.81;5009879;28;20046;-81
2021/12/17 11:42:24;;;;;;;88.20;25.00;;;;;;;7.27;100.00;103352.84;5021022;28;20060;-81
2021/12/17 11:45:23;;;;;;;82.00;27.45;;;;;;;7.34;100.00;103353.38;5024288;28;20030;-83
2021/12/17 11:47:41;;;;;;;83.00;24.73;;;;;;;7.35;100.00;103340.84;5024049;28;20033;-79
2021/12/17 11:50:10;;;;;;;69.80;27.58;;;;;;;7.39;100.00;103342.41;4995040;28;20462;-79
2021/12/17 11:52:52;;;;;;;93.57;30.73;;;;;;;7.46;100.00;103330.34;4994614;28;20132;-79
2021/12/17 11:55:21;;;;;;;83.88;26.77;;;;;;;7.64;100.00;103349.78;5000483;28;20037;-80
2021/12/17 11:57:48;;;;;;;78.07;29.65;;;;;;;7.48;100.00;103304.34;5005198;28;20033;-80
2021/12/17 12:00:15;;;;;;;105.13;36.65;;;;;;;7.67;100.00;103328.19;5011436;28;20108;-80
2021/12/17 12:02:58;;;;;;;103.65;36.95;;;;;;;7.84;100.00;103348.59;4993282;28;20038;-80
2021/12/17 12:05:34;;;;;;;53.00;20.43;;;;;;;7.86;100.00;103347.53;5011455;28;20036;-79
2021/12/17 12:08:24;;;;;;;93.72;31.23;;;;;;;7.78;100.00;103349.84;4993529;28;20387;-79
2021/12/17 12:11:12;;;;;;;89.30;29.10;;;;;;;7.74;100.00;103344.75;5027187;28;20041;-79
2021/12/17 12:13:45;;;;;;;79.45;27.88;;;;;;;8.29;100.00;103338.63;5008275;28;20404;-79
2021/12/17 12:16:15;;;;;;;71.68;23.58;;;;;;;8.98;100.00;103326.97;4990145;28;20456;-80
2021/12/17 12:18:42;;;;;;;79.07;26.40;;;;;;;9.49;98.57;103323.53;4992931;28;20049;-82
2021/12/17 12:21:09;;;;;;;44.65;16.40;;;;;;;9.00;98.76;103326.88;5026709;28;20378;-81
2021/12/17 12:23:38;;;;;;;80.72;26.90;;;;;;;9.57;96.58;103321.16;5029796;28;20506;-81
2021/12/17 12:26:13;;;;;;;53.38;20.83;;;;;;;9.33;96.64;103318.34;5012478;28;20034;-80
2021/12/17 12:28:45;;;;;;;51.78;20.45;;;;;;;8.73;99.29;103316.13;5015195;28;20132;-80
2021/12/17 12:31:19;;;;;;;82.72;27.55;;;;;;;9.17;98.09;103328.41;5011410;28;20087;-79
2021/12/17 12:34:00;;;;;;;66.05;26.80;;;;;;;11.04;89.69;103312.34;5012308;28;20386;-81
2021/12/17 12:36:57;;;;;;;62.33;25.08;;;;;;;12.23;85.66;103307.53;5026158;28;20041;-79
2021/12/17 12:39:48;;;;;;;49.10;18.75;;;;;;;13.55;79.92;103303.75;5028279;28;20032;-79
2021/12/17 12:42:22;;;;;;;56.13;21.67;;;;;;;14.38;76.60;103291.81;5024554;28;20037;-79
2021/12/17 12:44:56;;;;;;;54.53;22.73;;;;;;;14.93;74.88;103304.91;5001524;28;20478;-81
2021/12/17 12:47:29;;;;;;;62.63;23.52;;;;;;;13.94;77.71;103323.72;5028716;28;20204;-80
2021/12/17 12:50:27;;;;;;;62.35;24.40;;;;;;;13.30;79.35;103313.94;5016786;28;20529;-80
2021/12/17 12:52:59;;;;;;;53.60;20.65;;;;;;;12.20;82.09;103297.00;5026898;28;20414;-81
2021/12/17 12:55:33;;;;;;;63.17;23.25;;;;;;;11.14;86.43;103282.88;4997768;28;20459;-80
2021/12/17 12:57:59;;;;;;;76.40;26.17;;;;;;;11.26;85.72;103305.31;5021124;28;20041;-80
2021/12/17 13:00:54;;;;;;;88.10;30.65;;;;;;;10.42;89.10;103299.06;5009677;28;20041;-81
2021/12/17 13:03:34;;;;;;;66.68;25.95;;;;;;;10.87;88.04;103300.16;5015124;28;20041;-82
2021/12/17 13:06:00;;;;;;;65.22;25.33;;;;;;;11.55;85.29;103297.69;4995008;28;20109;-81
2021/12/17 13:08:31;;;;;;;60.63;24.35;;;;;;;12.09;83.77;103308.66;4996969;28;20057;-79
2021/12/17 13:10:59;;;;;;;59.15;23.30;;;;;;;11.62;84.17;103296.22;5012366;28;20050;-80
2021/12/17 13:24:36;;;;;;;53.80;20.60;;;;;;;11.69;84.40;103285.81;5025116;28;20044;-80
2021/12/17 13:27:10;;;;;;;70.20;18.85;;;;;;;12.34;80.92;103285.06;4994177;28;20046;-79
2021/12/17 13:29:40;;;;;;;54.67;23.17;;;;;;;11.21;84.13;103293.06;5027232;28;20025;-79
2021/12/17 13:32:17;;;;;;;60.17;22.08;;;;;;;10.43;86.43;103288.19;4995958;28;20034;-79
2021/12/17 13:34:56;;;;;;;48.63;22.88;;;;;;;9.80;89.80;103283.78;5004700;28;20048;-82
2021/12/17 13:37:30;;;;;;;59.58;24.17;;;;;;;9.39;89.59;103258.00;5013597;28;20175;-79
2021/12/17 13:40:08;;;;;;;56.50;24.17;;;;;;;9.22;90.69;103268.09;5024661;28;20438;-81
2021/12/17 13:42:42;;;;;;;84.45;27.95;;;;;;;9.22;90.66;103276.13;5004515;28;20387;-80
2021/12/17 13:45:10;;;;;;;91.05;32.88;;;;;;;9.27;90.72;103273.16;4995000;28;20029;-80
2021/12/17 13:47:38;;;;;;;126.13;39.97;;;;;;;9.31;90.96;103277.31;5011313;28;20088;-80
2021/12/17 13:50:12;;;;;;;110.45;38.25;;;;;;;9.21;91.06;103273.56;5010171;28;20109;-79
2021/12/17 13:52:48;;;;;;;145.48;48.85;;;;;;;8.89;92.24;103278.41;5011594;28;20052;-79
2021/12/17 13:55:17;;;;;;;137.80;42.85;;;;;;;8.78;93.14;103281.81;5026474;28;20112;-78
2021/12/17 13:57:43;;;;;;;122.28;41.92;;;;;;;8.57;93.18;103263.53;5026274;28;20388;-81
2021/12/17 14:00:36;;;;;;;94.55;33.35;;;;;;;8.47;94.65;103277.66;5011304;28;20050;-79
2021/12/17 14:03:02;;;;;;;;;;;;;;;8.43;94.15;103276.09;5014379;28;20034;-79
2021/12/17 14:06:08;;;;;;;112.95;42.88;;;;;;;8.32;94.57;103272.28;5011938;28;19996;-79
2021/12/17 14:08:20;;;;;;;89.95;38.72;;;;;;;8.18;94.75;103280.34;5008601;28;20041;-80
2021/12/17 14:10:48;;;;;;;74.85;29.83;;;;;;;8.05;95.76;103287.44;5004777;28;20037;-79
2021/12/17 14:13:22;;;;;;;87.20;37.15;;;;;;;8.00;95.82;103289.56;5023768;28;20401;-79
2021/12/17 14:15:49;;;;;;;92.65;39.40;;;;;;;8.19;95.48;103273.16;5025389;28;20033;-79
2021/12/17 14:18:17;;;;;;;88.88;33.00;;;;;;;8.25;96.59;103283.47;5045160;28;20110;-79
2021/12/17 14:20:50;;;;;;;69.28;28.55;;;;;;;8.20;97.58;103267.69;5008195;28;20033;-79
2021/12/17 14:23:18;;;;;;;66.50;27.75;;;;;;;8.37;97.74;103277.34;5011396;28;20053;-80
2021/12/17 14:25:48;;;;;;;46.10;20.27;;;;;;;8.34;96.63;103277.53;4995273;28;20052;-79